Time;durP1;ratioP1;P1;durP2;ratioP2;P2;SDS_P1;SDS_P2;PMS_P1;PMS_P2;Temp;Humidity;BMP_temperature;BMP_pressure;BME280_temperature;BME280_humidity;BME280_pressure;Samples;Min_cycle;Max_cycle;Signal;HPM_P1;HPM_P2
2022/12/04 00:01:23;;;;;;;74.70;29.20;;;2.50;99.90;;;;;;4116102;28;20181;-93
2022/12/04 00:03:24;;;;;;;71.80;28.93;;;2.60;99.90;;;;;;4100307;29;20651;-94
2022/12/04 00:05:25;;;;;;;72.83;29.43;;;2.60;99.90;;;;;;4116058;28;20201;-93
2022/12/04 00:07:26;;;;;;;64.33;26.07;;;2.60;99.90;;;;;;4100344;29;20194;-94
2022/12/04 00:09:26;;;;;;;71.97;28.13;;;2.70;99.90;;;;;;4099980;29;20181;-93
2022/12/04 00:11:29;;;;;;;78.43;31.27;;;2.60;99.90;;;;;;4115716;28;20564;-93
2022/12/04 00:13:31;;;;;;;71.57;28.00;;;2.60;99.90;;;;;;4100213;29;20189;-93
2022/12/04 00:15:32;;;;;;;70.97;28.93;;;2.60;99.90;;;;;;4100100;28;20276;-93
2022/12/04 00:17:33;;;;;;;74.90;28.20;;;2.60;99.90;;;;;;4116105;28;20239;-94
2022/12/04 00:19:33;;;;;;;71.43;26.43;;;2.60;99.90;;;;;;4116101;28;20187;-92
2022/12/04 00:21:34;;;;;;;63.37;27.47;;;2.60;99.90;;;;;;4100409;29;20179;-93
2022/12/04 00:23:37;;;;;;;62.57;25.97;;;2.70;99.90;;;;;;4115961;28;20178;-93
2022/12/04 00:25:37;;;;;;;70.43;30.27;;;2.60;99.90;;;;;;4099976;28;20687;-94
2022/12/04 00:27:38;;;;;;;79.00;29.30;;;2.50;99.90;;;;;;4116007;28;20177;-94
2022/12/04 00:29:39;;;;;;;75.07;28.27;;;2.50;99.90;;;;;;4099974;29;20206;-94
2022/12/04 00:31:40;;;;;;;74.00;28.17;;;2.50;99.90;;;;;;4126032;23;20321;-88
2022/12/04 00:33:41;;;;;;;76.13;29.47;;;2.50;99.90;;;;;;4114933;28;20172;-88
2022/12/04 00:35:41;;;;;;;77.80;31.30;;;2.50;99.90;;;;;;4099905;28;20230;-88
2022/12/04 00:37:42;;;;;;;70.87;29.57;;;2.40;99.90;;;;;;4116191;28;20206;-88
2022/12/04 00:39:42;;;;;;;78.87;30.37;;;2.40;99.90;;;;;;4099528;29;20200;-94
2022/12/04 00:41:43;;;;;;;77.00;30.70;;;2.30;99.90;;;;;;4098962;29;20178;-90
2022/12/04 00:43:47;;;;;;;74.43;29.83;;;2.20;99.90;;;;;;4115131;28;20221;-88
2022/12/04 00:45:48;;;;;;;73.30;26.03;;;2.20;99.90;;;;;;4083100;29;20743;-86
2022/12/04 00:47:49;;;;;;;64.57;27.10;;;2.10;99.90;;;;;;4099022;29;20182;-92
2022/12/04 00:49:49;;;;;;;81.57;33.07;;;2.10;99.90;;;;;;4098884;29;20183;-91
2022/12/04 00:51:50;;;;;;;78.53;32.30;;;2.10;99.90;;;;;;4099279;28;20171;-91
2022/12/04 00:53:52;;;;;;;73.43;29.43;;;2.10;99.90;;;;;;4099000;28;20275;-88
2022/12/04 00:55:52;;;;;;;72.20;28.73;;;2.10;99.90;;;;;;4083151;29;20187;-89
2022/12/04 00:57:53;;;;;;;75.60;29.03;;;2.10;99.90;;;;;;4099488;29;20167;-91
2022/12/04 00:59:55;;;;;;;74.77;29.17;;;2.10;99.90;;;;;;4098859;28;20186;-88
2022/12/04 01:01:55;;;;;;;81.43;30.60;;;2.20;99.90;;;;;;4083253;29;20180;-91
2022/12/04 01:03:56;;;;;;;74.63;29.70;;;2.30;99.90;;;;;;4114978;28;20178;-92
2022/12/04 01:05:57;;;;;;;73.00;28.97;;;2.20;99.90;;;;;;4100970;28;20261;-88
2022/12/04 01:07:57;;;;;;;79.70;31.00;;;2.20;99.90;;;;;;4102566;28;20181;-88
2022/12/04 01:09:58;;;;;;;83.60;29.97;;;2.20;99.90;;;;;;4101777;29;20179;-91
2022/12/04 01:11:59;;;;;;;73.80;25.80;;;2.20;99.90;;;;;;4101982;29;20186;-88
2022/12/04 01:14:00;;;;;;;78.27;31.33;;;2.20;99.90;;;;;;4101805;28;20688;-89
2022/12/04 01:16:01;;;;;;;81.40;29.43;;;2.20;99.90;;;;;;4101842;29;20178;-88
2022/12/04 01:18:02;;;;;;;75.33;29.13;;;2.10;99.90;;;;;;4102185;28;20285;-88
2022/12/04 01:20:04;;;;;;;72.33;28.57;;;2.10;99.90;;;;;;4118140;28;20245;-94
2022/12/04 01:22:04;;;;;;;83.67;32.50;;;2.20;99.90;;;;;;4101671;28;20178;-90
2022/12/04 01:24:06;;;;;;;74.27;29.57;;;2.20;99.90;;;;;;4101646;28;20167;-88
2022/12/04 01:26:07;;;;;;;72.70;28.67;;;2.10;99.90;;;;;;4102334;29;20170;-91
2022/12/04 01:28:09;;;;;;;74.23;27.27;;;2.10;99.90;;;;;;4101838;29;20182;-88
2022/12/04 01:30:11;;;;;;;78.13;32.07;;;2.10;99.90;;;;;;4101816;29;20663;-88
2022/12/04 01:32:11;;;;;;;75.37;29.23;;;2.00;99.90;;;;;;4102001;29;20269;-90
2022/12/04 01:34:12;;;;;;;74.70;29.83;;;1.90;99.90;;;;;;4105892;28;20218;-89
2022/12/04 01:36:17;;;;;;;79.03;32.17;;;1.90;99.90;;;;;;4128443;28;20178;-90
2022/12/04 01:38:18;;;;;;;78.77;31.50;;;1.90;99.90;;;;;;4102257;29;20658;-91
2022/12/04 01:40:18;;;;;;;63.43;26.37;;;2.00;99.90;;;;;;4102151;29;20186;-89
2022/12/04 01:42:19;;;;;;;67.47;26.73;;;1.90;99.90;;;;;;4086203;29;20179;-93
2022/12/04 01:44:23;;;;;;;86.03;33.77;;;1.90;99.90;;;;;;4101847;28;20203;-91
2022/12/04 01:46:23;;;;;;;83.40;32.67;;;1.90;99.90;;;;;;4085968;29;20629;-90
2022/12/04 01:48:29;;;;;;;72.90;28.07;;;1.90;99.90;;;;;;4101793;29;20173;-91
2022/12/04 01:50:30;;;;;;;79.97;33.87;;;1.80;99.90;;;;;;4085941;29;20231;-90
2022/12/04 01:52:31;;;;;;;81.87;32.53;;;1.80;99.90;;;;;;4101673;29;20554;-90
2022/12/04 01:54:36;;;;;;;86.27;33.70;;;1.70;99.90;;;;;;4101185;28;20222;-89
2022/12/04 01:56:50;;;;;;;79.67;31.20;;;1.70;99.90;;;;;;4085877;29;20211;-92
2022/12/04 01:58:55;;;;;;;67.13;28.43;;;1.80;99.90;;;;;;4085525;29;20202;-90
2022/12/04 02:01:00;;;;;;;81.33;27.07;;;1.70;99.90;;;;;;4101715;29;20167;-89
2022/12/04 02:03:01;;;;;;;76.77;30.57;;;1.70;99.90;;;;;;4085714;29;20192;-90
2022/12/04 02:05:03;;;;;;;76.03;29.73;;;1.80;99.90;;;;;;4101310;28;20201;-90
2022/12/04 02:07:04;;;;;;;80.73;32.80;;;1.80;99.90;;;;;;4101388;29;20179;-91
2022/12/04 02:09:05;;;;;;;84.23;32.77;;;1.80;99.90;;;;;;4101151;29;20251;-90
2022/12/04 02:11:08;;;;;;;89.07;33.83;;;1.70;99.90;;;;;;4085451;29;20176;-91
2022/12/04 02:13:19;;;;;;;78.30;29.20;;;1.70;99.90;;;;;;4085454;29;20568;-91
2022/12/04 02:15:31;;;;;;;79.30;31.67;;;1.60;99.90;;;;;;4085100;29;20218;-90
2022/12/04 02:17:50;;;;;;;79.47;29.23;;;1.70;99.90;;;;;;4084408;29;20540;-90
2022/12/04 02:20:15;;;;;;;60.30;24.43;;;1.70;99.90;;;;;;4117125;28;20265;-89
2022/12/04 02:22:58;;;;;;;89.43;33.53;;;1.90;99.90;;;;;;4101463;29;20183;-88
2022/12/04 02:25:40;;;;;;;71.90;29.83;;;1.90;99.90;;;;;;4071504;29;20206;-91
2022/12/04 02:27:50;;;;;;;73.47;27.53;;;1.90;99.90;;;;;;4101021;29;20187;-90
2022/12/04 02:30:03;;;;;;;75.13;30.07;;;1.80;99.90;;;;;;4100858;29;20171;-90
2022/12/04 02:32:21;;;;;;;82.63;31.33;;;1.80;99.90;;;;;;4085311;29;20289;-92
2022/12/04 02:34:46;;;;;;;87.67;28.63;;;1.90;99.90;;;;;;4084881;29;20325;-89
2022/12/04 02:37:11;;;;;;;86.53;30.67;;;1.90;99.90;;;;;;4101046;29;20190;-91
2022/12/04 02:39:24;;;;;;;66.43;25.57;;;1.90;99.90;;;;;;4084746;29;20223;-92
2022/12/04 02:41:35;;;;;;;71.60;25.63;;;1.80;99.90;;;;;;4100550;29;20175;-89
2022/12/04 02:43:43;;;;;;;73.93;30.17;;;1.70;99.90;;;;;;4100622;29;20666;-91
2022/12/04 02:45:59;;;;;;;65.63;26.33;;;1.80;99.90;;;;;;4084551;29;20613;-91
2022/12/04 02:48:01;;;;;;;78.87;31.33;;;1.90;99.90;;;;;;4084920;29;20250;-90
2022/12/04 02:50:08;;;;;;;88.17;34.03;;;1.90;99.90;;;;;;4085156;29;20179;-91
2022/12/04 02:52:13;;;;;;;83.30;31.97;;;1.80;99.90;;;;;;4084860;29;20191;-91
2022/12/04 02:54:22;;;;;;;81.50;31.43;;;1.70;99.90;;;;;;4084558;29;20267;-91
2022/12/04 02:56:26;;;;;;;87.57;33.57;;;1.70;99.90;;;;;;4100761;29;20182;-89
2022/12/04 02:58:36;;;;;;;93.67;34.10;;;1.70;99.90;;;;;;4084878;29;20181;-92
2022/12/04 03:00:40;;;;;;;85.70;33.13;;;1.60;99.90;;;;;;4100687;29;20170;-91
2022/12/04 03:02:58;;;;;;;88.47;33.17;;;1.60;99.90;;;;;;4100822;29;20545;-91
2022/12/04 03:05:06;;;;;;;86.83;32.07;;;1.60;99.90;;;;;;4084567;29;20199;-88
2022/12/04 03:07:14;;;;;;;76.03;31.07;;;1.50;99.90;;;;;;4084446;29;20504;-90
2022/12/04 03:09:17;;;;;;;76.13;29.60;;;1.60;99.90;;;;;;4084639;29;20178;-93
2022/12/04 03:11:18;;;;;;;85.53;33.13;;;1.60;99.90;;;;;;4084787;29;20699;-91
2022/12/04 03:13:25;;;;;;;91.00;33.17;;;1.60;99.90;;;;;;4099940;28;20222;-90
2022/12/04 03:15:34;;;;;;;91.70;34.07;;;1.60;99.90;;;;;;4084242;29;20263;-92
2022/12/04 03:17:46;;;;;;;92.97;34.23;;;1.60;99.90;;;;;;4083970;29;20183;-90
2022/12/04 03:19:53;;;;;;;83.97;31.80;;;1.70;99.90;;;;;;4084295;29;20187;-89
2022/12/04 03:21:58;;;;;;;82.63;32.27;;;1.60;99.90;;;;;;4084851;29;20660;-89
2022/12/04 03:24:16;;;;;;;70.60;28.53;;;1.60;99.90;;;;;;4084592;29;20179;-92
2022/12/04 03:26:27;;;;;;;85.80;33.50;;;1.60;99.90;;;;;;4084254;29;20176;-90
2022/12/04 03:28:38;;;;;;;82.30;31.70;;;1.60;99.90;;;;;;4084189;29;20179;-90
2022/12/04 03:30:48;;;;;;;81.30;29.77;;;1.70;99.90;;;;;;4084617;29;20179;-91
2022/12/04 03:32:54;;;;;;;89.63;33.10;;;1.70;99.90;;;;;;4096314;29;20540;-91
2022/12/04 03:35:09;;;;;;;87.83;30.20;;;1.70;99.90;;;;;;4089802;29;20230;-93
2022/12/04 03:37:14;;;;;;;83.93;29.77;;;1.70;99.90;;;;;;4084682;29;20171;-90
2022/12/04 03:39:41;;;;;;;73.60;27.17;;;1.70;99.90;;;;;;4084560;29;20280;-91
2022/12/04 03:41:55;;;;;;;84.83;31.53;;;1.80;99.90;;;;;;4100396;29;20182;-92
2022/12/04 03:44:04;;;;;;;80.80;28.23;;;1.80;99.90;;;;;;4100015;28;20257;-93
2022/12/04 03:46:11;;;;;;;95.20;33.10;;;1.80;99.90;;;;;;4084417;29;20191;-90
2022/12/04 03:48:25;;;;;;;82.73;30.17;;;1.80;99.90;;;;;;4083945;29;20279;-90
2022/12/04 03:50:41;;;;;;;86.30;29.10;;;1.80;99.90;;;;;;4099666;29;20178;-90
2022/12/04 03:52:56;;;;;;;95.57;31.87;;;1.80;99.90;;;;;;4084291;29;20234;-90
2022/12/04 03:55:20;;;;;;;88.67;32.70;;;2.00;99.90;;;;;;4083918;29;20234;-92
2022/12/04 03:57:27;;;;;;;96.90;33.43;;;2.10;99.90;;;;;;4099723;29;20171;-92
2022/12/04 03:59:39;;;;;;;92.03;32.57;;;2.10;99.90;;;;;;4084280;29;20219;-91
2022/12/04 04:01:44;;;;;;;80.60;28.93;;;2.00;99.90;;;;;;4084028;29;20179;-90
2022/12/04 04:03:49;;;;;;;86.93;31.23;;;2.10;99.90;;;;;;4083908;29;20199;-93
2022/12/04 04:05:56;;;;;;;96.20;34.13;;;2.20;99.90;;;;;;4099512;29;20186;-92
2022/12/04 04:08:46;;;;;;;85.10;29.77;;;2.20;99.90;;;;;;4083843;29;20179;-89
2022/12/04 04:10:25;;;;;;;92.50;32.67;;;2.30;99.90;;;;;;4096217;29;20183;-94
2022/12/04 04:12:31;;;;;;;87.77;29.83;;;2.10;99.90;;;;;;4099574;28;20190;-90
2022/12/04 04:24:27;;;;;;;79.20;27.10;;;2.30;99.90;;;;;;4115234;28;20196;-89
2022/12/04 04:26:34;;;;;;;88.47;31.03;;;2.20;99.90;;;;;;4099422;29;20548;-89
2022/12/04 04:28:39;;;;;;;79.83;28.70;;;2.10;99.90;;;;;;4099488;28;20198;-93
2022/12/04 04:30:40;;;;;;;82.80;29.63;;;2.20;99.90;;;;;;4099221;28;20179;-93
2022/12/04 04:32:47;;;;;;;78.83;29.40;;;2.30;99.90;;;;;;4099354;29;20186;-90
2022/12/04 04:34:52;;;;;;;71.30;26.60;;;2.20;99.90;;;;;;4115313;28;20217;-92
2022/12/04 04:37:26;;;;;;;80.73;30.07;;;2.30;99.90;;;;;;4099142;29;20968;-91
2022/12/04 04:39:33;;;;;;;86.63;30.67;;;2.20;99.90;;;;;;4074949;29;20641;-90
2022/12/04 04:41:53;;;;;;;79.50;28.53;;;2.40;99.90;;;;;;4086871;29;20269;-92
2022/12/04 04:44:04;;;;;;;74.97;28.47;;;2.60;99.90;;;;;;4086775;29;20182;-90
2022/12/04 04:46:11;;;;;;;78.23;28.80;;;2.70;99.90;;;;;;4086778;29;20175;-89
2022/12/04 04:48:30;;;;;;;80.23;30.07;;;2.70;99.90;;;;;;4086762;29;20178;-89
2022/12/04 04:50:33;;;;;;;77.63;28.77;;;2.60;99.90;;;;;;4086171;29;20183;-91
2022/12/04 04:52:36;;;;;;;88.53;29.77;;;2.60;99.90;;;;;;4086587;29;20199;-92
2022/12/04 04:54:37;;;;;;;77.50;30.07;;;2.50;99.90;;;;;;4086434;29;20246;-92
2022/12/04 04:56:43;;;;;;;74.73;28.80;;;2.50;99.90;;;;;;4086438;29;20621;-91
2022/12/04 04:58:44;;;;;;;84.73;32.33;;;2.60;99.90;;;;;;4086459;29;20203;-93
2022/12/04 05:00:59;;;;;;;77.43;30.30;;;2.50;99.90;;;;;;4102488;29;20265;-90
2022/12/04 05:03:00;;;;;;;82.27;29.23;;;2.50;99.90;;;;;;4086569;29;20183;-92
2022/12/04 05:05:01;;;;;;;78.67;29.20;;;2.40;99.90;;;;;;4101809;28;20202;-92
2022/12/04 05:07:01;;;;;;;83.57;31.33;;;2.40;99.90;;;;;;4102158;28;20195;-91
2022/12/04 05:09:02;;;;;;;73.33;29.40;;;2.50;99.90;;;;;;4102495;29;20587;-90
2022/12/04 05:11:04;;;;;;;75.93;29.20;;;2.50;99.90;;;;;;4102003;29;20201;-92
2022/12/04 05:13:05;;;;;;;83.13;30.80;;;2.50;99.90;;;;;;4086328;29;20232;-90
2022/12/04 05:15:06;;;;;;;70.57;24.90;;;2.50;99.90;;;;;;4118044;28;20262;-91
2022/12/04 05:17:07;;;;;;;81.00;31.70;;;2.50;99.90;;;;;;4118207;28;20179;-93
2022/12/04 05:21:27;;;;;;;73.43;29.23;;;2.40;99.90;;;;;;4117995;28;20182;-93
2022/12/04 05:23:28;;;;;;;78.83;31.13;;;2.40;99.90;;;;;;4102053;29;20179;-93
2022/12/04 05:25:28;;;;;;;70.30;28.20;;;2.40;99.90;;;;;;4117915;28;20186;-91
2022/12/04 05:27:30;;;;;;;83.23;29.60;;;2.40;99.90;;;;;;4101690;29;20226;-91
2022/12/04 05:29:31;;;;;;;80.80;29.70;;;2.40;99.90;;;;;;4102123;29;20644;-89
2022/12/04 05:31:31;;;;;;;69.13;28.07;;;2.30;99.90;;;;;;4101943;28;20195;-93
2022/12/04 05:33:32;;;;;;;76.97;29.87;;;2.40;99.90;;;;;;4085896;28;20176;-93
2022/12/04 05:35:33;;;;;;;82.33;32.73;;;2.40;99.90;;;;;;4101560;28;20226;-89
2022/12/04 05:37:39;;;;;;;80.97;30.60;;;2.30;99.90;;;;;;4101780;28;20238;-90
2022/12/04 05:39:39;;;;;;;75.87;29.93;;;2.20;99.90;;;;;;4102320;28;20175;-91
2022/12/04 05:41:40;;;;;;;84.00;33.97;;;2.20;99.90;;;;;;4102217;28;20175;-89
2022/12/04 05:43:40;;;;;;;89.40;33.33;;;2.20;99.90;;;;;;4102340;29;20171;-90
2022/12/04 05:45:41;;;;;;;86.70;32.33;;;2.20;99.90;;;;;;4098037;29;20211;-90
2022/12/04 05:47:43;;;;;;;85.93;32.63;;;2.10;99.90;;;;;;4122388;28;20189;-90
2022/12/04 05:49:44;;;;;;;81.23;34.43;;;2.10;99.90;;;;;;4086276;29;20230;-90
2022/12/04 05:51:44;;;;;;;72.10;29.20;;;2.10;99.90;;;;;;4102075;28;20206;-93
2022/12/04 05:53:45;;;;;;;80.20;30.70;;;2.00;99.90;;;;;;4101705;29;20167;-91
2022/12/04 05:55:57;;;;;;;79.37;30.43;;;2.00;99.90;;;;;;4085616;29;20219;-91
2022/12/04 05:57:57;;;;;;;72.60;28.20;;;2.00;99.90;;;;;;4097120;29;20171;-93
2022/12/04 05:59:58;;;;;;;72.17;28.73;;;2.00;99.90;;;;;;4101745;29;20174;-92
2022/12/04 06:01:59;;;;;;;65.80;25.13;;;2.10;99.90;;;;;;4101466;29;20262;-90
2022/12/04 06:03:59;;;;;;;76.67;30.47;;;2.30;99.90;;;;;;4101430;28;20282;-90
2022/12/04 06:06:00;;;;;;;73.23;28.40;;;2.20;99.90;;;;;;4101374;29;20187;-91
2022/12/04 06:08:01;;;;;;;73.43;30.23;;;2.20;99.90;;;;;;4101364;29;20175;-92
2022/12/04 06:10:02;;;;;;;85.03;32.30;;;2.20;99.90;;;;;;4101582;29;20180;-89
2022/12/04 06:12:03;;;;;;;81.17;30.67;;;2.30;99.90;;;;;;4101536;28;20179;-89
2022/12/04 06:14:06;;;;;;;80.33;32.07;;;2.30;99.90;;;;;;4101878;28;20307;-90
2022/12/04 06:16:19;;;;;;;80.77;33.20;;;2.30;99.90;;;;;;4101883;29;20664;-91
2022/12/04 06:18:20;;;;;;;85.17;33.87;;;2.20;99.90;;;;;;4101709;29;20258;-91
2022/12/04 06:20:21;;;;;;;81.73;32.07;;;2.20;99.90;;;;;;4101634;28;20171;-91
2022/12/04 06:22:21;;;;;;;84.47;30.73;;;2.30;99.90;;;;;;4117592;28;20181;-91
2022/12/04 06:24:23;;;;;;;86.90;32.47;;;2.30;99.90;;;;;;4101638;28;20206;-90
2022/12/04 06:26:24;;;;;;;75.07;30.43;;;2.30;99.90;;;;;;4085825;29;20183;-92
2022/12/04 06:28:25;;;;;;;74.80;31.47;;;2.30;99.90;;;;;;4101687;29;20743;-90
2022/12/04 06:32:29;;;;;;;81.53;31.13;;;2.30;99.90;;;;;;4149795;28;20231;-92
2022/12/04 06:34:29;;;;;;;70.13;27.17;;;2.40;99.90;;;;;;4117862;28;20222;-91
2022/12/04 06:36:31;;;;;;;79.40;29.83;;;2.30;99.90;;;;;;4101625;29;20175;-92
2022/12/04 06:38:32;;;;;;;82.73;30.67;;;2.20;99.90;;;;;;4133814;28;20169;-90
2022/12/04 06:40:33;;;;;;;75.40;29.13;;;2.30;99.90;;;;;;4117507;28;20179;-90
2022/12/04 06:42:33;;;;;;;75.63;28.37;;;2.20;99.90;;;;;;4117396;28;20229;-92
2022/12/04 06:44:34;;;;;;;78.53;30.87;;;2.20;99.90;;;;;;4117514;28;20556;-92
2022/12/04 06:46:35;;;;;;;72.10;31.00;;;2.20;99.90;;;;;;4133631;28;20606;-94
2022/12/04 06:48:37;;;;;;;75.77;30.27;;;2.20;99.90;;;;;;4117375;28;20169;-91
2022/12/04 06:50:37;;;;;;;73.47;31.03;;;2.30;99.90;;;;;;4117319;28;20269;-91
2022/12/04 06:52:38;;;;;;;88.70;31.27;;;2.30;99.90;;;;;;4117348;28;20602;-93
2022/12/04 06:54:39;;;;;;;78.80;30.97;;;2.20;99.90;;;;;;4101355;28;20222;-90
2022/12/04 06:56:40;;;;;;;79.50;29.57;;;2.20;99.90;;;;;;4117112;28;20268;-91
2022/12/04 06:58:40;;;;;;;75.43;28.47;;;2.30;99.90;;;;;;4117552;28;20325;-93
2022/12/04 07:00:41;;;;;;;74.53;29.70;;;2.20;99.90;;;;;;4134051;28;20177;-94
2022/12/04 07:02:42;;;;;;;72.97;31.07;;;2.20;99.90;;;;;;4101134;28;20175;-92
2022/12/04 07:04:43;;;;;;;80.53;34.27;;;2.20;99.90;;;;;;4117677;28;20197;-93
2022/12/04 07:06:43;;;;;;;81.53;32.27;;;2.20;99.90;;;;;;4117030;28;20687;-92
2022/12/04 07:08:47;;;;;;;81.30;31.37;;;2.20;99.90;;;;;;4117540;28;20218;-93
2022/12/04 07:10:48;;;;;;;76.07;29.47;;;2.20;99.90;;;;;;4117693;28;20174;-89
2022/12/04 07:12:48;;;;;;;88.07;33.10;;;2.10;99.90;;;;;;4117655;28;20182;-91
2022/12/04 07:14:49;;;;;;;69.07;28.50;;;2.20;99.90;;;;;;4133680;28;20221;-90
2022/12/04 07:16:50;;;;;;;79.53;31.37;;;2.10;99.90;;;;;;4118249;28;20248;-94
2022/12/04 07:18:52;;;;;;;80.20;31.93;;;2.20;99.90;;;;;;4117566;28;20178;-91
2022/12/04 07:20:53;;;;;;;68.30;27.17;;;2.20;99.90;;;;;;4117919;28;20175;-91
2022/12/04 07:22:54;;;;;;;76.63;29.27;;;2.20;99.90;;;;;;4133701;28;20213;-92
2022/12/04 07:24:55;;;;;;;75.80;31.30;;;2.20;99.90;;;;;;4117539;28;20202;-91
2022/12/04 07:26:55;;;;;;;81.10;30.67;;;2.20;99.90;;;;;;4117746;28;20173;-92
2022/12/04 07:28:57;;;;;;;81.53;33.07;;;2.20;99.90;;;;;;4120797;28;20174;-90
2022/12/04 07:30:58;;;;;;;71.77;28.10;;;2.30;99.90;;;;;;4131604;28;20194;-91
2022/12/04 07:32:58;;;;;;;73.80;27.30;;;2.40;99.90;;;;;;4133226;28;20225;-91
2022/12/04 07:34:59;;;;;;;82.70;33.40;;;2.30;99.90;;;;;;4132553;28;20281;-91
2022/12/04 07:37:00;;;;;;;82.63;30.27;;;2.30;99.90;;;;;;4150199;28;20176;-91
2022/12/04 07:39:01;;;;;;;80.87;32.60;;;2.30;99.90;;;;;;4117860;28;20174;-94
2022/12/04 07:41:04;;;;;;;65.80;26.43;;;2.40;99.90;;;;;;4137489;28;20197;-91
2022/12/04 07:43:05;;;;;;;71.97;29.93;;;2.50;99.90;;;;;;4149180;28;20201;-90
2022/12/04 07:45:07;;;;;;;80.80;30.70;;;2.50;99.90;;;;;;4132835;28;20174;-89
2022/12/04 07:47:08;;;;;;;81.40;34.17;;;2.50;99.90;;;;;;4134255;28;20166;-91
2022/12/04 07:49:11;;;;;;;75.57;29.00;;;2.50;99.90;;;;;;4116698;28;20227;-91
2022/12/04 07:51:17;;;;;;;73.10;28.63;;;2.50;99.90;;;;;;4149030;28;20161;-93
2022/12/04 07:53:18;;;;;;;80.67;31.80;;;2.40;99.90;;;;;;4133764;28;20190;-92
2022/12/04 07:55:19;;;;;;;83.23;33.07;;;2.50;99.90;;;;;;4118986;28;20229;-90
2022/12/04 07:57:20;;;;;;;73.97;27.20;;;2.50;99.90;;;;;;4133807;28;20205;-91
2022/12/04 07:59:20;;;;;;;87.00;33.53;;;2.50;99.90;;;;;;4150250;28;20220;-91
2022/12/04 08:01:22;;;;;;;80.40;32.67;;;2.50;99.90;;;;;;4133015;28;20202;-92
2022/12/04 08:03:24;;;;;;;71.83;30.83;;;2.50;99.90;;;;;;4149286;28;20231;-92
2022/12/04 08:05:26;;;;;;;69.27;29.60;;;2.50;99.90;;;;;;4134177;28;20194;-90
2022/12/04 08:07:27;;;;;;;79.70;33.50;;;2.50;99.90;;;;;;4133157;28;20174;-92
2022/12/04 08:09:27;;;;;;;61.17;25.67;;;2.60;99.90;;;;;;4114882;29;20186;-92
2022/12/04 08:11:28;;;;;;;79.23;32.63;;;2.40;99.90;;;;;;4135443;28;20292;-93
2022/12/04 08:13:32;;;;;;;85.33;33.97;;;2.40;99.90;;;;;;4116533;28;20651;-93
2022/12/04 08:15:33;;;;;;;77.30;33.37;;;2.40;99.90;;;;;;4131254;28;20209;-91
2022/12/04 08:17:34;;;;;;;70.23;29.90;;;2.40;99.90;;;;;;4132379;28;20170;-92
2022/12/04 08:19:35;;;;;;;69.03;26.30;;;2.30;99.90;;;;;;4116191;28;20266;-91
2022/12/04 08:21:36;;;;;;;84.33;33.80;;;2.30;99.90;;;;;;4132226;28;20180;-92
2022/12/04 08:23:38;;;;;;;76.57;29.23;;;2.30;99.90;;;;;;4116172;28;20261;-92
2022/12/04 08:25:40;;;;;;;81.53;32.63;;;2.40;99.90;;;;;;4132203;28;20674;-91
2022/12/04 08:27:45;;;;;;;81.73;33.37;;;2.40;99.90;;;;;;4132397;28;20174;-95
2022/12/04 08:29:48;;;;;;;77.53;31.83;;;2.50;99.90;;;;;;4118374;28;20169;-93
2022/12/04 08:31:49;;;;;;;83.30;34.67;;;2.50;99.90;;;;;;4101618;28;20202;-93
2022/12/04 08:33:55;;;;;;;78.83;32.93;;;2.50;99.90;;;;;;4116945;28;20240;-92
2022/12/04 08:35:56;;;;;;;76.07;30.37;;;2.50;99.90;;;;;;4100374;28;20250;-93
2022/12/04 08:37:57;;;;;;;61.07;25.77;;;2.40;99.90;;;;;;4132699;28;20178;-90
2022/12/04 08:39:58;;;;;;;81.30;34.57;;;2.40;99.90;;;;;;4116406;28;20170;-93
2022/12/04 08:41:58;;;;;;;76.47;31.60;;;2.50;99.90;;;;;;4116395;28;20243;-92
2022/12/04 08:43:59;;;;;;;77.97;30.57;;;2.40;99.90;;;;;;4115954;28;20563;-90
2022/12/04 08:46:05;;;;;;;86.33;33.57;;;2.40;99.90;;;;;;4132061;28;20177;-91
2022/12/04 08:48:06;;;;;;;87.77;35.63;;;2.40;99.90;;;;;;4132191;28;20666;-91
2022/12/04 08:50:07;;;;;;;79.30;31.57;;;2.40;99.90;;;;;;4115945;28;20159;-92
2022/12/04 08:52:08;;;;;;;77.20;32.67;;;2.40;99.90;;;;;;4132043;28;20177;-93
2022/12/04 08:54:12;;;;;;;79.00;32.13;;;2.50;99.90;;;;;;4115868;28;21892;-93
2022/12/04 08:56:13;;;;;;;82.60;34.80;;;2.50;99.90;;;;;;4131823;28;20566;-92
2022/12/04 08:58:14;;;;;;;79.97;33.90;;;2.50;99.90;;;;;;4099869;28;20206;-91
2022/12/04 09:00:16;;;;;;;86.00;36.00;;;2.50;99.90;;;;;;4115953;28;20214;-92
2022/12/04 09:02:17;;;;;;;65.13;26.57;;;2.40;99.90;;;;;;4099762;28;20176;-93
2022/12/04 09:04:18;;;;;;;79.17;34.53;;;2.40;99.90;;;;;;4131705;28;20663;-93
2022/12/04 09:06:19;;;;;;;84.60;34.30;;;2.40;99.90;;;;;;4115973;28;20277;-92
2022/12/04 09:08:20;;;;;;;80.23;31.40;;;2.40;99.90;;;;;;4115904;28;20170;-92
2022/12/04 09:10:22;;;;;;;78.87;32.83;;;2.50;99.90;;;;;;4115881;28;20650;-92
2022/12/04 09:12:22;;;;;;;78.17;34.30;;;2.60;99.90;;;;;;4115753;28;20206;-92
2022/12/04 09:14:25;;;;;;;82.90;35.63;;;2.60;99.90;;;;;;4131547;28;20268;-92
2022/12/04 09:16:26;;;;;;;82.63;34.10;;;2.60;99.90;;;;;;4115675;28;20178;-91
2022/12/04 09:18:27;;;;;;;72.67;30.93;;;2.50;99.90;;;;;;4115737;28;20229;-92
2022/12/04 09:20:27;;;;;;;80.87;32.17;;;2.50;99.90;;;;;;4131806;28;20184;-90
2022/12/04 09:22:28;;;;;;;80.67;32.83;;;2.50;99.90;;;;;;4115995;28;20262;-90
2022/12/04 09:24:30;;;;;;;73.10;31.30;;;2.70;99.90;;;;;;4099929;28;20186;-92
2022/12/04 09:26:31;;;;;;;79.17;32.17;;;2.80;99.90;;;;;;4117403;28;20181;-91
2022/12/04 09:28:32;;;;;;;80.37;33.37;;;2.90;99.90;;;;;;4118808;28;20559;-91
2022/12/04 09:30:33;;;;;;;70.77;30.47;;;3.00;99.90;;;;;;4118638;28;20174;-92
2022/12/04 09:32:34;;;;;;;74.93;33.50;;;3.00;99.90;;;;;;4119024;28;20634;-92
2022/12/04 09:34:35;;;;;;;72.50;31.07;;;3.00;99.90;;;;;;4118628;28;20221;-93
2022/12/04 09:36:37;;;;;;;74.17;33.07;;;3.00;99.90;;;;;;4119136;28;20897;-92
2022/12/04 09:38:37;;;;;;;80.17;32.03;;;2.90;99.90;;;;;;4118558;28;20178;-91
2022/12/04 09:40:51;;;;;;;76.50;34.03;;;2.80;99.90;;;;;;4118551;28;20182;-91
2022/12/04 09:43:33;;;;;;;75.57;32.30;;;2.80;99.90;;;;;;4134599;28;20260;-92
2022/12/04 09:45:45;;;;;;;79.53;32.53;;;2.80;99.90;;;;;;4134357;28;20202;-91
2022/12/04 09:47:51;;;;;;;79.83;32.40;;;3.00;99.90;;;;;;4134561;28;20200;-93
2022/12/04 09:50:02;;;;;;;69.83;30.00;;;3.10;99.90;;;;;;4134307;28;20268;-92
2022/12/04 09:52:29;;;;;;;73.63;31.87;;;3.10;99.90;;;;;;4118344;28;20182;-94
2022/12/04 09:54:37;;;;;;;67.60;30.07;;;3.20;99.90;;;;;;4101845;28;20269;-92
2022/12/04 09:56:38;;;;;;;78.17;30.90;;;3.20;99.90;;;;;;4134092;28;20184;-93
2022/12/04 09:59:01;;;;;;;64.83;29.00;;;3.10;99.90;;;;;;4134102;28;20184;-92
2022/12/04 10:01:03;;;;;;;70.13;29.77;;;3.00;99.90;;;;;;4134351;28;20178;-91
2022/12/04 10:03:10;;;;;;;69.77;28.53;;;3.00;99.90;;;;;;4134242;28;20178;-92
2022/12/04 10:05:37;;;;;;;68.33;30.47;;;2.90;99.90;;;;;;4134021;28;20724;-93
2022/12/04 10:08:04;;;;;;;61.37;27.00;;;2.90;99.90;;;;;;4118014;28;20209;-94
2022/12/04 10:10:18;;;;;;;66.37;29.00;;;3.00;99.90;;;;;;4117750;28;20256;-90
2022/12/04 10:12:24;;;;;;;63.07;26.77;;;3.00;99.90;;;;;;4134027;28;20256;-92
2022/12/04 10:14:40;;;;;;;57.50;26.80;;;3.10;99.90;;;;;;4101675;28;20219;-93
2022/12/04 10:16:46;;;;;;;59.20;29.00;;;3.00;99.90;;;;;;4117929;28;20217;-90
2022/12/04 10:19:01;;;;;;;62.57;27.87;;;3.20;99.90;;;;;;4102030;28;20171;-92
2022/12/04 10:21:29;;;;;;;63.13;28.53;;;3.20;99.90;;;;;;4101986;28;20680;-93
2022/12/04 10:23:52;;;;;;;57.37;29.27;;;3.10;99.90;;;;;;4134130;28;20734;-90
2022/12/04 10:25:54;;;;;;;65.37;29.80;;;3.10;99.90;;;;;;4133641;28;20594;-91
2022/12/04 10:28:15;;;;;;;57.97;26.77;;;3.10;99.90;;;;;;4134181;28;20224;-93
2022/12/04 10:30:20;;;;;;;64.27;27.90;;;2.90;99.90;;;;;;4133844;28;20217;-93
2022/12/04 10:32:26;;;;;;;61.27;27.57;;;3.00;99.90;;;;;;4133737;28;20189;-91
2022/12/04 10:34:28;;;;;;;62.47;28.03;;;3.10;99.90;;;;;;4101458;28;20223;-91
2022/12/04 10:36:32;;;;;;;59.03;27.43;;;3.20;99.90;;;;;;4101786;28;20217;-91
2022/12/04 10:38:54;;;;;;;57.93;25.83;;;3.20;99.90;;;;;;4101060;28;20178;-93
2022/12/04 10:41:12;;;;;;;57.10;25.17;;;3.20;99.90;;;;;;4118079;28;20261;-93
2022/12/04 10:43:32;;;;;;;45.80;21.87;;;3.00;99.90;;;;;;4134181;28;20218;-93
2022/12/04 10:45:33;;;;;;;54.93;21.90;;;2.70;99.90;;;;;;4118576;28;20198;-89
2022/12/04 10:47:34;;;;;;;49.73;24.20;;;2.70;99.90;;;;;;4118486;28;20175;-90
2022/12/04 10:49:36;;;;;;;55.80;25.60;;;2.80;99.90;;;;;;4134635;28;20708;-92
2022/12/04 10:51:41;;;;;;;47.93;22.23;;;2.90;99.90;;;;;;4102971;28;20229;-90
2022/12/04 10:53:44;;;;;;;54.60;23.50;;;2.80;99.90;;;;;;4101933;28;20179;-92
2022/12/04 10:55:44;;;;;;;50.90;24.27;;;2.70;99.90;;;;;;4117756;28;20224;-91